Time;durP1;ratioP1;P1;durP2;ratioP2;P2;SDS_P1;SDS_P2;PMS_P1;PMS_P2;Temp;Humidity;BMP_temperature;BMP_pressure;BME280_temperature;BME280_humidity;BME280_pressure;Samples;Min_cycle;Max_cycle;Signal;HPM_P1;HPM_P2
2023/01/16 00:00:49;;;;;;;0.70;0.70;;;5.00;99.90;;;;;;5026795;27;20066;-86
2023/01/16 00:03:14;;;;;;;0.70;0.70;;;5.00;99.90;;;;;;5030972;27;20039;-86
2023/01/16 00:05:41;;;;;;;0.70;0.70;;;5.00;99.90;;;;;;5029607;27;20079;-86
2023/01/16 00:08:07;;;;;;;0.60;0.60;;;5.20;99.90;;;;;;5031496;27;20039;-86
2023/01/16 00:10:33;;;;;;;0.60;0.60;;;5.20;99.90;;;;;;5047596;27;20038;-85
2023/01/16 00:12:59;;;;;;;0.70;0.70;;;5.20;99.90;;;;;;5023917;27;20071;-87
2023/01/16 00:15:24;;;;;;;0.60;0.60;;;5.30;99.90;;;;;;5028024;27;20878;-85
2023/01/16 00:17:50;;;;;;;0.68;0.68;;;5.30;99.90;;;;;;5046894;27;20085;-86
2023/01/16 00:20:16;;;;;;;0.60;0.60;;;5.30;99.90;;;;;;5014062;27;20507;-86
2023/01/16 00:22:45;;;;;;;0.60;0.60;;;5.30;99.90;;;;;;5032476;27;20050;-86
2023/01/16 00:25:11;;;;;;;0.70;0.70;;;5.30;99.90;;;;;;5051319;27;20047;-86
2023/01/16 00:27:37;;;;;;;0.70;0.70;;;5.40;99.90;;;;;;5033894;27;20042;-85
2023/01/16 00:30:05;;;;;;;0.70;0.70;;;5.40;99.90;;;;;;5021328;27;20039;-85
2023/01/16 00:32:30;;;;;;;0.60;0.60;;;5.40;99.90;;;;;;5013686;27;20039;-87
2023/01/16 00:34:56;;;;;;;0.60;0.60;;;5.40;99.90;;;;;;5043691;27;20496;-87
2023/01/16 00:37:22;;;;;;;0.60;0.60;;;5.50;99.90;;;;;;5039846;27;20487;-87
2023/01/16 00:39:48;;;;;;;0.60;0.60;;;5.40;99.90;;;;;;5028967;27;20093;-87
2023/01/16 00:42:14;;;;;;;0.60;0.60;;;5.50;99.90;;;;;;5024521;27;20200;-87
2023/01/16 00:44:40;;;;;;;0.70;0.70;;;5.50;99.90;;;;;;5026260;27;20122;-86
2023/01/16 00:47:06;;;;;;;0.70;0.70;;;5.50;99.90;;;;;;5044958;27;20479;-86
2023/01/16 00:49:32;;;;;;;0.60;0.60;;;5.50;99.90;;;;;;5030996;27;20066;-86
2023/01/16 00:51:58;;;;;;;0.60;0.60;;;5.60;99.90;;;;;;5021711;27;20051;-87
2023/01/16 00:54:24;;;;;;;0.63;0.63;;;5.60;99.90;;;;;;5030296;27;22696;-86
2023/01/16 00:56:50;;;;;;;0.60;0.60;;;5.60;99.90;;;;;;5044579;27;20054;-86
2023/01/16 00:59:16;;;;;;;0.60;0.60;;;5.60;99.90;;;;;;5027432;27;20183;-87
2023/01/16 01:01:41;;;;;;;0.70;0.70;;;5.70;99.90;;;;;;5034877;27;20058;-85
2023/01/16 01:04:07;;;;;;;0.63;0.63;;;5.60;99.90;;;;;;5018878;27;20537;-86
2023/01/16 01:06:36;;;;;;;0.70;0.70;;;5.60;99.90;;;;;;5007190;27;20234;-86
2023/01/16 01:09:01;;;;;;;0.60;0.60;;;5.60;99.90;;;;;;5030727;27;20062;-86
2023/01/16 01:11:32;;;;;;;0.70;0.70;;;5.60;99.90;;;;;;5049785;27;20446;-86
2023/01/16 01:13:58;;;;;;;0.60;0.60;;;5.70;99.90;;;;;;5051994;27;20085;-87
2023/01/16 01:16:24;;;;;;;0.60;0.60;;;5.70;99.90;;;;;;5021783;27;20156;-86
2023/01/16 01:18:50;;;;;;;0.60;0.60;;;5.70;99.90;;;;;;5032137;27;20051;-87
2023/01/16 01:21:16;;;;;;;0.60;0.60;;;5.70;99.90;;;;;;5031103;27;20749;-86
2023/01/16 01:23:42;;;;;;;0.60;0.60;;;5.80;99.90;;;;;;5044481;27;20050;-87
2023/01/16 01:26:10;;;;;;;0.63;0.63;;;5.70;99.90;;;;;;5026104;27;22953;-86
2023/01/16 01:28:36;;;;;;;0.60;0.60;;;5.80;99.90;;;;;;5046401;27;20057;-87
2023/01/16 01:31:08;;;;;;;0.60;0.60;;;5.80;99.90;;;;;;5032690;27;20039;-87
2023/01/16 01:33:34;;;;;;;0.60;0.60;;;5.70;99.90;;;;;;5042795;27;20031;-86
2023/01/16 01:36:00;;;;;;;0.60;0.60;;;5.80;99.90;;;;;;4992948;27;20046;-87
2023/01/16 01:38:26;;;;;;;0.60;0.60;;;5.80;99.90;;;;;;5011117;27;20052;-87
2023/01/16 01:40:52;;;;;;;0.65;0.65;;;5.80;99.90;;;;;;4992313;27;20084;-87
2023/01/16 01:43:18;;;;;;;0.60;0.60;;;5.80;99.90;;;;;;5040513;27;20047;-87
2023/01/16 01:45:49;;;;;;;0.70;0.70;;;5.80;99.90;;;;;;5032479;27;20100;-87
2023/01/16 01:48:18;;;;;;;0.70;0.70;;;5.80;99.90;;;;;;5037232;27;20085;-86
2023/01/16 01:50:46;;;;;;;0.60;0.60;;;5.80;99.90;;;;;;5040953;27;20043;-86
2023/01/16 01:53:23;;;;;;;0.70;0.70;;;5.80;99.90;;;;;;5026470;27;20074;-86
2023/01/16 01:55:50;;;;;;;0.60;0.60;;;5.80;99.90;;;;;;5046413;27;20454;-87
2023/01/16 01:58:21;;;;;;;0.63;0.63;;;5.80;99.90;;;;;;5051064;27;20146;-86
2023/01/16 02:00:56;;;;;;;0.60;0.60;;;5.70;99.90;;;;;;5049991;27;20047;-87
2023/01/16 02:03:36;;;;;;;0.70;0.70;;;5.80;99.90;;;;;;5043509;27;20869;-87
2023/01/16 02:06:09;;;;;;;0.60;0.60;;;5.80;99.90;;;;;;5029048;27;20045;-87
2023/01/16 02:08:35;;;;;;;0.60;0.60;;;5.80;99.90;;;;;;5046068;27;20054;-87
2023/01/16 02:11:40;;;;;;;0.70;0.70;;;5.80;99.90;;;;;;5048738;27;20116;-87
2023/01/16 02:14:09;;;;;;;0.60;0.60;;;5.80;99.90;;;;;;4951569;28;20285;-87
2023/01/16 02:19:29;;;;;;;0.70;0.70;;;5.80;99.90;;;;;;5046574;27;20878;-87
2023/01/16 02:22:37;;;;;;;0.60;0.60;;;5.80;99.90;;;;;;5043457;27;20047;-86
2023/01/16 02:25:40;;;;;;;0.70;0.70;;;5.80;99.90;;;;;;5042420;27;20134;-87
2023/01/16 02:28:15;;;;;;;0.63;0.63;;;5.90;99.90;;;;;;5040596;27;20047;-87
2023/01/16 02:31:18;;;;;;;0.60;0.60;;;5.80;99.90;;;;;;5028531;27;20554;-87
2023/01/16 02:33:57;;;;;;;0.60;0.60;;;5.80;99.90;;;;;;5043765;27;20051;-86
2023/01/16 02:36:25;;;;;;;0.60;0.60;;;5.90;99.90;;;;;;5030357;27;20047;-87
2023/01/16 02:39:22;;;;;;;0.60;0.60;;;5.90;99.90;;;;;;5033688;27;20053;-87
2023/01/16 02:42:09;;;;;;;0.60;0.60;;;5.80;99.90;;;;;;5024638;27;20043;-86
2023/01/16 02:44:38;;;;;;;0.60;0.60;;;5.80;99.90;;;;;;5026431;27;20070;-86
2023/01/16 02:47:13;;;;;;;0.60;0.60;;;5.80;99.90;;;;;;5028809;27;20082;-87
2023/01/16 02:49:46;;;;;;;0.60;0.60;;;5.80;99.90;;;;;;5029048;27;20057;-86
2023/01/16 02:52:21;;;;;;;0.60;0.60;;;5.80;99.90;;;;;;5056441;27;20585;-86
2023/01/16 02:54:49;;;;;;;0.60;0.60;;;5.80;99.90;;;;;;5039056;27;20507;-87
2023/01/16 02:57:20;;;;;;;0.60;0.60;;;5.80;99.90;;;;;;5044013;27;20594;-86
2023/01/16 02:59:47;;;;;;;0.60;0.60;;;5.70;99.90;;;;;;5027300;27;21312;-87
2023/01/16 03:02:14;;;;;;;0.60;0.60;;;5.70;99.90;;;;;;5040963;27;20515;-87
2023/01/16 03:04:51;;;;;;;0.60;0.60;;;5.70;99.90;;;;;;5023888;27;20395;-86
2023/01/16 03:07:50;;;;;;;0.60;0.60;;;5.70;99.90;;;;;;5032440;27;20377;-86
2023/01/16 03:10:25;;;;;;;0.60;0.60;;;5.70;99.90;;;;;;5022633;27;20046;-86
2023/01/16 03:13:08;;;;;;;0.60;0.60;;;5.60;99.90;;;;;;5031173;27;20051;-86
2023/01/16 03:15:56;;;;;;;0.60;0.60;;;5.60;99.90;;;;;;5042902;27;20042;-86
2023/01/16 03:18:28;;;;;;;0.60;0.60;;;5.60;99.90;;;;;;5028583;27;20095;-85
2023/01/16 03:21:29;;;;;;;0.60;0.60;;;5.60;99.90;;;;;;5029367;27;20139;-87
2023/01/16 03:24:01;;;;;;;0.70;0.70;;;5.60;99.90;;;;;;5021122;27;20285;-86
2023/01/16 03:26:36;;;;;;;0.60;0.60;;;5.60;99.90;;;;;;5042573;27;20126;-87
2023/01/16 03:29:10;;;;;;;0.60;0.60;;;5.60;99.90;;;;;;5055178;27;20121;-86
2023/01/16 03:32:04;;;;;;;0.65;0.65;;;5.60;99.90;;;;;;5027901;27;20054;-87
2023/01/16 03:35:01;;;;;;;0.60;0.60;;;5.50;99.90;;;;;;5043216;27;20761;-87
2023/01/16 03:37:53;;;;;;;0.60;0.60;;;5.40;99.90;;;;;;5038954;27;20239;-87
2023/01/16 03:40:23;;;;;;;0.70;0.70;;;5.50;99.90;;;;;;5030995;27;20074;-86
2023/01/16 03:43:03;;;;;;;0.60;0.60;;;5.30;99.90;;;;;;5024396;27;20054;-86
2023/01/16 03:45:55;;;;;;;0.60;0.60;;;5.30;99.90;;;;;;5036789;27;20035;-86
2023/01/16 03:48:42;;;;;;;0.70;0.70;;;5.20;99.90;;;;;;5044667;27;20083;-86
2023/01/16 03:51:11;;;;;;;0.68;0.68;;;5.30;99.90;;;;;;5029316;27;20154;-86
2023/01/16 03:53:46;;;;;;;0.60;0.60;;;5.30;99.90;;;;;;5023705;27;20226;-87
2023/01/16 03:56:18;;;;;;;0.70;0.70;;;5.40;99.90;;;;;;5030549;27;20058;-86
2023/01/16 03:58:48;;;;;;;0.70;0.70;;;5.30;99.90;;;;;;5025899;27;20444;-86
2023/01/16 04:01:45;;;;;;;0.60;0.60;;;5.30;99.90;;;;;;5041795;27;20095;-86
2023/01/16 04:04:28;;;;;;;0.70;0.70;;;5.20;99.90;;;;;;5041146;27;20083;-86
2023/01/16 04:07:02;;;;;;;0.65;0.65;;;5.20;99.90;;;;;;5033307;27;20439;-85
2023/01/16 04:09:43;;;;;;;0.70;0.70;;;5.10;99.90;;;;;;5031022;27;20050;-86
2023/01/16 04:12:12;;;;;;;0.70;0.70;;;5.10;99.90;;;;;;5035298;27;20035;-87
2023/01/16 04:14:40;;;;;;;0.70;0.70;;;5.20;99.90;;;;;;5025811;27;20134;-86
2023/01/16 04:17:06;;;;;;;0.70;0.70;;;5.10;99.90;;;;;;5020909;27;20047;-85
2023/01/16 04:19:33;;;;;;;0.70;0.70;;;5.00;99.90;;;;;;5020440;27;20046;-86
2023/01/16 04:21:59;;;;;;;0.60;0.60;;;5.10;99.90;;;;;;5043712;27;20178;-85
2023/01/16 04:24:25;;;;;;;0.70;0.70;;;5.00;99.90;;;;;;5012309;27;20488;-86
2023/01/16 04:26:51;;;;;;;0.60;0.60;;;5.10;99.90;;;;;;5011547;28;20366;-85
2023/01/16 04:29:17;;;;;;;0.70;0.70;;;5.10;99.90;;;;;;5023847;28;20066;-86
2023/01/16 04:31:43;;;;;;;0.70;0.70;;;5.10;99.90;;;;;;5003216;28;20052;-87
2023/01/16 04:34:11;;;;;;;0.70;0.70;;;5.10;99.90;;;;;;5025975;28;20580;-86
2023/01/16 04:36:37;;;;;;;0.60;0.60;;;5.10;99.90;;;;;;5016523;28;20137;-86
2023/01/16 04:39:03;;;;;;;0.70;0.70;;;5.10;99.90;;;;;;5022719;28;20389;-85
2023/01/16 04:41:40;;;;;;;0.60;0.60;;;5.10;99.90;;;;;;5024416;28;20044;-87
2023/01/16 04:44:10;;;;;;;0.70;0.70;;;5.00;99.90;;;;;;5028668;28;20699;-87
2023/01/16 04:46:37;;;;;;;0.70;0.70;;;5.00;99.90;;;;;;5034752;28;20517;-87
2023/01/16 04:49:04;;;;;;;0.70;0.70;;;4.80;99.90;;;;;;5020642;28;20046;-86
2023/01/16 04:51:33;;;;;;;0.70;0.70;;;4.80;99.90;;;;;;5015814;28;20047;-86
2023/01/16 04:53:58;;;;;;;0.70;0.70;;;4.60;99.90;;;;;;4995270;28;20075;-86
2023/01/16 04:56:24;;;;;;;0.70;0.70;;;4.60;99.90;;;;;;5009767;28;20630;-87
2023/01/16 04:58:52;;;;;;;0.70;0.70;;;4.40;99.90;;;;;;5021150;28;20040;-87
2023/01/16 05:01:19;;;;;;;0.70;0.70;;;4.40;99.90;;;;;;5040948;28;20082;-86
2023/01/16 05:03:45;;;;;;;0.70;0.70;;;4.30;99.90;;;;;;5034384;28;20541;-87
2023/01/16 05:06:13;;;;;;;0.70;0.70;;;4.30;99.90;;;;;;5005289;28;20520;-86
2023/01/16 05:08:39;;;;;;;0.70;0.70;;;4.20;99.90;;;;;;5011573;28;20051;-87
2023/01/16 05:11:05;;;;;;;0.70;0.70;;;4.10;99.90;;;;;;5022803;28;20073;-86
2023/01/16 05:13:30;;;;;;;0.70;0.70;;;4.20;99.90;;;;;;5042364;28;20046;-87
2023/01/16 05:15:59;;;;;;;0.70;0.70;;;4.20;99.90;;;;;;5006998;28;20043;-86
2023/01/16 05:18:25;;;;;;;0.60;0.60;;;4.00;99.90;;;;;;5023754;28;20051;-86
2023/01/16 05:20:51;;;;;;;0.70;0.70;;;4.20;99.90;;;;;;5006147;28;20433;-87
2023/01/16 05:23:17;;;;;;;0.60;0.60;;;4.00;99.90;;;;;;5013359;28;20450;-87
2023/01/16 05:25:44;;;;;;;0.70;0.70;;;4.10;99.90;;;;;;4996894;27;20057;-87
2023/01/16 05:28:11;;;;;;;0.70;0.70;;;4.00;99.90;;;;;;5037283;27;20050;-86
2023/01/16 05:30:36;;;;;;;0.70;0.70;;;4.00;99.90;;;;;;5025825;27;20444;-86
2023/01/16 05:33:04;;;;;;;0.70;0.70;;;4.00;99.90;;;;;;5053246;27;20437;-87
2023/01/16 05:35:30;;;;;;;0.70;0.70;;;4.20;99.90;;;;;;5047805;27;20035;-87
2023/01/16 05:37:56;;;;;;;0.70;0.70;;;4.00;99.90;;;;;;5024497;27;20496;-87
2023/01/16 05:40:29;;;;;;;0.70;0.70;;;4.10;99.90;;;;;;5019222;27;20047;-87
2023/01/16 05:42:55;;;;;;;0.70;0.70;;;4.10;99.90;;;;;;5030658;27;20527;-86
2023/01/16 05:45:21;;;;;;;0.70;0.70;;;4.10;99.90;;;;;;5037234;27;20129;-87
2023/01/16 05:47:46;;;;;;;0.70;0.70;;;4.10;99.90;;;;;;5042872;27;20058;-87
2023/01/16 05:50:12;;;;;;;0.60;0.60;;;4.20;99.90;;;;;;5049928;27;20125;-87
2023/01/16 05:52:38;;;;;;;0.70;0.70;;;4.20;99.90;;;;;;5024403;27;20449;-87
2023/01/16 05:55:04;;;;;;;0.70;0.70;;;4.30;99.90;;;;;;5034951;27;20073;-87
2023/01/16 05:57:30;;;;;;;0.70;0.70;;;4.30;99.90;;;;;;5016832;27;20050;-87
2023/01/16 05:59:55;;;;;;;0.70;0.70;;;4.40;99.90;;;;;;5032488;27;20039;-87
2023/01/16 06:02:21;;;;;;;0.70;0.70;;;4.50;99.90;;;;;;5060593;27;20148;-87
2023/01/16 06:04:48;;;;;;;0.70;0.70;;;4.40;99.90;;;;;;5030713;27;20110;-87
2023/01/16 06:07:14;;;;;;;0.70;0.70;;;4.40;99.90;;;;;;5043712;27;20043;-87
2023/01/16 06:09:41;;;;;;;0.65;0.65;;;4.40;99.90;;;;;;5047791;27;20047;-87
2023/01/16 06:12:15;;;;;;;0.70;0.70;;;4.50;99.90;;;;;;5054743;27;20410;-87
2023/01/16 06:14:41;;;;;;;0.70;0.70;;;4.50;99.90;;;;;;5033380;27;20157;-87
2023/01/16 06:17:06;;;;;;;0.70;0.70;;;4.60;99.90;;;;;;5028858;27;20130;-87
2023/01/16 06:19:32;;;;;;;0.70;0.70;;;4.60;99.90;;;;;;5019750;27;20063;-87
2023/01/16 06:21:58;;;;;;;0.70;0.70;;;4.50;99.90;;;;;;5049055;27;20058;-87
2023/01/16 06:24:24;;;;;;;0.70;0.70;;;4.50;99.90;;;;;;5015846;27;20128;-87
2023/01/16 06:26:50;;;;;;;0.70;0.70;;;4.50;99.90;;;;;;5028099;27;20078;-88
2023/01/16 06:29:15;;;;;;;0.70;0.70;;;4.50;99.90;;;;;;5052586;27;20051;-87
2023/01/16 06:31:41;;;;;;;0.70;0.70;;;4.50;99.90;;;;;;5032762;27;20463;-87
2023/01/16 06:34:10;;;;;;;0.70;0.70;;;4.40;99.90;;;;;;5038018;27;20398;-88
2023/01/16 06:36:35;;;;;;;0.70;0.70;;;4.40;99.90;;;;;;5032903;27;20052;-86
2023/01/16 06:39:01;;;;;;;0.70;0.70;;;4.40;99.90;;;;;;5019394;27;20767;-87
2023/01/16 06:41:27;;;;;;;0.70;0.70;;;4.40;99.90;;;;;;5035799;27;20050;-87
2023/01/16 06:43:55;;;;;;;0.70;0.70;;;4.40;99.90;;;;;;5021895;27;20331;-87
2023/01/16 06:46:21;;;;;;;0.68;0.68;;;4.50;99.90;;;;;;5051831;27;20127;-87
2023/01/16 06:48:47;;;;;;;0.70;0.70;;;4.50;99.90;;;;;;5036730;27;20079;-86
2023/01/16 06:51:13;;;;;;;0.70;0.70;;;4.40;99.90;;;;;;5009284;27;20049;-87
2023/01/16 06:53:41;;;;;;;0.70;0.70;;;4.40;99.90;;;;;;5031250;27;20404;-88
2023/01/16 06:56:07;;;;;;;0.60;0.60;;;4.30;99.90;;;;;;5036835;27;20130;-87
2023/01/16 06:58:33;;;;;;;0.70;0.70;;;4.40;99.90;;;;;;5014038;27;20046;-87
2023/01/16 07:00:59;;;;;;;0.70;0.70;;;4.30;99.90;;;;;;5049216;27;20050;-86
2023/01/16 07:03:25;;;;;;;0.70;0.70;;;4.40;99.90;;;;;;5031174;27;20595;-88
2023/01/16 07:05:51;;;;;;;0.70;0.70;;;4.40;99.90;;;;;;5009718;27;20744;-88
2023/01/16 07:08:16;;;;;;;0.70;0.70;;;4.30;99.90;;;;;;5023841;27;20084;-87
2023/01/16 07:10:42;;;;;;;0.70;0.70;;;4.30;99.90;;;;;;5031450;27;20055;-87
2023/01/16 07:13:09;;;;;;;0.68;0.68;;;4.30;99.90;;;;;;5050825;27;20247;-86
2023/01/16 07:24:10;;;;;;;0.70;0.70;;;4.20;99.90;;;;;;5057104;27;20122;-87
2023/01/16 07:26:39;;;;;;;0.70;0.70;;;4.20;99.90;;;;;;5049791;27;20091;-87
2023/01/16 07:29:06;;;;;;;0.70;0.70;;;4.40;99.90;;;;;;5052341;27;20793;-88
2023/01/16 07:31:33;;;;;;;0.70;0.70;;;4.30;99.90;;;;;;5051384;27;20981;-87
2023/01/16 07:33:59;;;;;;;0.70;0.70;;;4.30;99.90;;;;;;5049748;27;20077;-86
2023/01/16 07:36:40;;;;;;;0.70;0.70;;;4.30;99.90;;;;;;5045956;27;20495;-87
2023/01/16 07:39:06;;;;;;;0.70;0.70;;;4.30;99.90;;;;;;5014947;27;20242;-87
2023/01/16 07:41:32;;;;;;;0.70;0.70;;;4.30;99.90;;;;;;5053362;27;20055;-88
2023/01/16 07:43:58;;;;;;;0.70;0.70;;;4.30;99.90;;;;;;5007799;27;20050;-88
2023/01/16 07:46:23;;;;;;;0.80;0.80;;;4.40;99.90;;;;;;5049260;27;20043;-88
2023/01/16 07:48:51;;;;;;;0.70;0.70;;;4.40;99.90;;;;;;5033225;27;20211;-86
2023/01/16 07:51:17;;;;;;;0.70;0.70;;;4.50;99.90;;;;;;5023419;27;20652;-89
2023/01/16 07:53:43;;;;;;;0.70;0.70;;;4.40;99.90;;;;;;5022708;27;20500;-88
2023/01/16 07:56:08;;;;;;;0.70;0.70;;;4.50;99.90;;;;;;5034119;27;20512;-87
2023/01/16 07:58:37;;;;;;;0.70;0.70;;;4.50;99.90;;;;;;5027500;27;20450;-88
2023/01/16 08:01:05;;;;;;;0.70;0.70;;;4.50;99.90;;;;;;5031969;27;20050;-87
2023/01/16 08:03:31;;;;;;;0.70;0.70;;;4.60;99.90;;;;;;5048022;27;20122;-87
2023/01/16 08:05:58;;;;;;;0.70;0.70;;;4.60;99.90;;;;;;5044269;27;20853;-87
2023/01/16 08:08:28;;;;;;;0.70;0.70;;;4.60;99.90;;;;;;5050287;27;20047;-86
2023/01/16 08:10:58;;;;;;;0.70;0.70;;;4.70;99.90;;;;;;5050860;27;20558;-87
2023/01/16 08:13:25;;;;;;;0.70;0.70;;;4.70;99.90;;;;;;5036090;27;20951;-87
2023/01/16 08:15:52;;;;;;;0.60;0.60;;;4.60;99.90;;;;;;5024960;27;20047;-87
2023/01/16 08:18:19;;;;;;;0.70;0.70;;;4.80;99.90;;;;;;5038155;27;20050;-88
2023/01/16 08:20:46;;;;;;;0.70;0.70;;;4.70;99.90;;;;;;5019995;27;20563;-88
2023/01/16 08:23:12;;;;;;;0.70;0.70;;;4.70;99.90;;;;;;5027862;27;20146;-87
2023/01/16 08:25:38;;;;;;;0.70;0.70;;;4.80;99.90;;;;;;5011283;27;20157;-87
2023/01/16 08:28:04;;;;;;;0.70;0.70;;;4.70;99.90;;;;;;5018668;27;20441;-87
2023/01/16 08:30:31;;;;;;;0.70;0.70;;;4.80;99.90;;;;;;5021283;27;20147;-87
2023/01/16 08:33:01;;;;;;;0.70;0.70;;;4.80;99.90;;;;;;5041917;27;20155;-87
2023/01/16 08:35:27;;;;;;;0.70;0.70;;;4.80;99.90;;;;;;5032891;27;20524;-86
2023/01/16 08:37:53;;;;;;;0.70;0.70;;;4.90;99.90;;;;;;5037970;27;20810;-87
2023/01/16 08:40:20;;;;;;;0.70;0.70;;;4.80;99.90;;;;;;5019744;27;20039;-87
2023/01/16 08:51:25;;;;;;;0.70;0.70;;;4.90;99.90;;;;;;5038228;27;20607;-87
2023/01/16 08:53:55;;;;;;;0.70;0.70;;;4.90;99.90;;;;;;5031744;27;20089;-88
2023/01/16 08:56:22;;;;;;;0.70;0.70;;;4.90;99.90;;;;;;5038662;27;20576;-87
2023/01/16 08:58:48;;;;;;;0.70;0.70;;;4.90;99.90;;;;;;5037131;27;20422;-88
2023/01/16 09:01:15;;;;;;;0.70;0.70;;;4.90;99.90;;;;;;5039654;27;20389;-87
2023/01/16 09:03:43;;;;;;;0.70;0.70;;;4.90;99.90;;;;;;5046356;27;20380;-87
2023/01/16 09:06:09;;;;;;;0.70;0.70;;;5.00;99.90;;;;;;5020487;27;20248;-87
2023/01/16 09:08:42;;;;;;;0.70;0.70;;;5.00;99.90;;;;;;5021120;27;20268;-87
2023/01/16 09:13:52;;;;;;;0.60;0.60;;;4.90;99.90;;;;;;5032100;27;22050;-87
2023/01/16 09:16:24;;;;;;;0.70;0.70;;;5.00;99.90;;;;;;5051105;27;20062;-87
2023/01/16 09:18:56;;;;;;;0.70;0.70;;;5.00;99.90;;;;;;5029076;27;20564;-87
2023/01/16 09:21:24;;;;;;;0.70;0.70;;;4.90;99.90;;;;;;5026975;27;20071;-88
2023/01/16 09:23:51;;;;;;;0.70;0.70;;;4.90;99.90;;;;;;5019102;27;20129;-87
2023/01/16 09:26:17;;;;;;;0.70;0.70;;;5.00;99.90;;;;;;5024247;27;20055;-88
2023/01/16 09:28:43;;;;;;;0.70;0.70;;;4.90;99.90;;;;;;5029905;27;20228;-88
2023/01/16 09:31:09;;;;;;;0.70;0.70;;;5.00;99.90;;;;;;5024414;27;20039;-88
2023/01/16 09:33:36;;;;;;;0.70;0.70;;;5.10;99.90;;;;;;5030626;27;20042;-86
2023/01/16 09:36:05;;;;;;;0.70;0.70;;;5.00;99.90;;;;;;5030103;27;20535;-88
2023/01/16 09:38:31;;;;;;;0.70;0.70;;;5.10;99.90;;;;;;5028049;27;20056;-87
2023/01/16 09:40:58;;;;;;;0.70;0.70;;;5.00;99.90;;;;;;5007696;27;20043;-87
2023/01/16 09:43:40;;;;;;;0.70;0.70;;;5.20;99.90;;;;;;5041883;27;20065;-87
2023/01/16 09:46:15;;;;;;;0.70;0.70;;;5.10;99.90;;;;;;5044569;27;20035;-86
2023/01/16 09:49:28;;;;;;;0.70;0.70;;;5.10;99.90;;;;;;5037355;27;20062;-88
2023/01/16 10:00:50;;;;;;;0.70;0.70;;;5.20;99.90;;;;;;5028245;27;20133;-87
2023/01/16 10:03:16;;;;;;;0.80;0.80;;;5.10;99.90;;;;;;5028212;27;20051;-87
2023/01/16 10:06:14;;;;;;;0.70;0.70;;;5.20;99.90;;;;;;5003305;27;20515;-89
2023/01/16 10:08:43;;;;;;;0.70;0.70;;;5.10;99.90;;;;;;5027213;27;20055;-88
2023/01/16 10:11:33;;;;;;;0.70;0.70;;;5.10;99.90;;;;;;5030683;27;20035;-87
2023/01/16 10:14:20;;;;;;;0.70;0.70;;;5.10;99.90;;;;;;5047627;27;20430;-87
2023/01/16 10:17:32;;;;;;;0.70;0.70;;;5.10;99.90;;;;;;5043965;27;20109;-89
2023/01/16 10:20:25;;;;;;;0.60;0.60;;;5.10;99.90;;;;;;5027860;27;20065;-88
2023/01/16 10:23:12;;;;;;;0.70;0.70;;;5.10;99.90;;;;;;5034847;27;20118;-88
2023/01/16 10:26:06;;;;;;;0.70;0.70;;;5.10;99.90;;;;;;5042263;27;20055;-88
2023/01/16 10:29:08;;;;;;;0.70;0.70;;;5.00;99.90;;;;;;5045074;27;20046;-88
2023/01/16 10:31:40;;;;;;;0.70;0.70;;;5.00;99.90;;;;;;5031850;27;20046;-88
2023/01/16 10:34:31;;;;;;;0.70;0.70;;;5.00;99.90;;;;;;5051591;27;20777;-88
2023/01/16 10:36:59;;;;;;;0.70;0.70;;;5.10;99.90;;;;;;5042129;27;21038;-88
2023/01/16 10:39:37;;;;;;;0.70;0.70;;;5.10;99.90;;;;;;5041355;27;20068;-88
2023/01/16 10:50:41;;;;;;;0.70;0.70;;;5.00;99.90;;;;;;5042453;27;20047;-90
2023/01/16 10:53:09;;;;;;;0.70;0.70;;;5.00;99.90;;;;;;5011686;27;20046;-87
2023/01/16 10:55:38;;;;;;;0.70;0.70;;;5.10;99.90;;;;;;5047173;27;20488;-89
2023/01/16 10:58:17;;;;;;;0.70;0.70;;;5.10;99.90;;;;;;5048954;27;20054;-89
2023/01/16 11:00:45;;;;;;;0.70;0.70;;;5.10;99.90;;;;;;5036265;27;20154;-88
2023/01/16 11:03:28;;;;;;;0.70;0.70;;;5.20;99.90;;;;;;5012728;27;20214;-88
2023/01/16 11:06:14;;;;;;;0.70;0.70;;;5.20;99.90;;;;;;5039237;27;20554;-88
2023/01/16 11:08:47;;;;;;;0.70;0.70;;;5.00;99.90;;;;;;5050831;27;20936;-87
2023/01/16 11:19:42;;;;;;;0.70;0.70;;;5.20;99.90;;;;;;5047240;27;20499;-89
2023/01/16 11:22:25;;;;;;;0.70;0.70;;;5.20;99.90;;;;;;5046413;27;20664;-89
2023/01/16 11:24:57;;;;;;;0.70;0.70;;;5.10;99.90;;;;;;5052137;27;20038;-90
2023/01/16 11:27:26;;;;;;;0.70;0.70;;;5.20;99.90;;;;;;5032793;27;20416;-89
2023/01/16 11:29:57;;;;;;;0.70;0.70;;;5.20;99.90;;;;;;5035109;27;20061;-90
2023/01/16 11:32:28;;;;;;;0.70;0.70;;;5.20;99.90;;;;;;5036072;27;20450;-89
2023/01/16 11:34:57;;;;;;;0.70;0.70;;;5.30;99.90;;;;;;5046850;27;20787;-90
2023/01/16 11:37:26;;;;;;;0.60;0.60;;;5.30;99.90;;;;;;5049454;27;20038;-89
2023/01/16 11:39:54;;;;;;;0.70;0.70;;;5.20;99.90;;;;;;5056445;27;20376;-88
2023/01/16 11:48:22;;;;;;;0.70;0.70;;;5.30;99.90;;;;;;5049132;27;20058;-88
2023/01/16 11:50:52;;;;;;;0.70;0.70;;;5.40;99.90;;;;;;5056115;27;20050;-89
2023/01/16 11:53:18;;;;;;;0.70;0.70;;;5.50;99.90;;;;;;5031862;27;20049;-90
2023/01/16 11:55:57;;;;;;;0.70;0.70;;;5.60;99.90;;;;;;5017312;27;20460;-88
2023/01/16 11:58:41;;;;;;;0.70;0.70;;;5.60;99.90;;;;;;5032729;27;20065;-89
2023/01/16 12:01:14;;;;;;;0.70;0.70;;;5.60;99.90;;;;;;5037231;27;20047;-88
2023/01/16 12:03:50;;;;;;;0.70;0.70;;;5.70;99.90;;;;;;5033748;27;20050;-88
2023/01/16 12:06:37;;;;;;;0.70;0.70;;;5.70;99.90;;;;;;5049399;27;20397;-89
2023/01/16 12:09:24;;;;;;;0.70;0.70;;;5.60;99.90;;;;;;5035563;27;20044;-90
2023/01/16 12:15:01;;;;;;;0.70;0.70;;;5.70;99.90;;;;;;5059477;27;20400;-90
2023/01/16 12:17:29;;;;;;;0.70;0.70;;;5.80;99.90;;;;;;5041677;27;20039;-89
2023/01/16 12:20:25;;;;;;;0.70;0.70;;;5.70;99.90;;;;;;5036708;27;20100;-88
2023/01/16 12:23:09;;;;;;;0.60;0.60;;;5.70;99.90;;;;;;5026955;27;20908;-87
2023/01/16 12:25:59;;;;;;;0.70;0.70;;;5.70;99.90;;;;;;5051640;27;20234;-88
2023/01/16 12:28:43;;;;;;;0.70;0.70;;;5.80;99.90;;;;;;5059332;27;20425;-89
2023/01/16 12:31:35;;;;;;;0.70;0.70;;;5.80;99.90;;;;;;5036418;27;20050;-89
2023/01/16 12:34:15;;;;;;;0.60;0.60;;;5.70;99.90;;;;;;5032899;27;20379;-86
2023/01/16 12:36:53;;;;;;;0.70;0.70;;;5.70;99.90;;;;;;5047814;27;20434;-89
2023/01/16 12:39:25;;;;;;;0.70;0.70;;;5.70;99.90;;;;;;5035414;27;20043;-90
2023/01/16 12:45:17;;;;;;;0.70;0.70;;;5.70;99.90;;;;;;5044791;27;20590;-89
2023/01/16 12:48:04;;;;;;;0.70;0.70;;;5.70;99.90;;;;;;5048577;27;20526;-91
2023/01/16 12:50:49;;;;;;;0.60;0.60;;;5.80;99.90;;;;;;5033235;27;20461;-89
2023/01/16 12:53:56;;;;;;;0.70;0.70;;;5.70;99.90;;;;;;5033568;27;20066;-89
2023/01/16 12:56:59;;;;;;;0.70;0.70;;;5.70;99.90;;;;;;5031470;27;20101;-90
2023/01/16 12:59:30;;;;;;;0.70;0.70;;;5.70;99.90;;;;;;5026765;27;20206;-90
2023/01/16 13:02:16;;;;;;;0.70;0.70;;;5.70;99.90;;;;;;5025417;27;20412;-88
2023/01/16 13:05:23;;;;;;;0.70;0.70;;;5.80;99.90;;;;;;5052109;27;20213;-87
2023/01/16 13:07:57;;;;;;;0.70;0.70;;;5.80;99.90;;;;;;5005026;27;20355;-88
2023/01/16 13:13:30;;;;;;;0.70;0.70;;;6.10;99.90;;;;;;5048073;27;20047;-88
2023/01/16 13:16:07;;;;;;;0.70;0.70;;;6.40;99.90;;;;;;5030014;27;20039;-88
2023/01/16 13:18:52;;;;;;;0.70;0.70;;;6.40;99.90;;;;;;5040560;27;20078;-89
2023/01/16 13:21:27;;;;;;;0.70;0.70;;;6.60;99.90;;;;;;5051044;27;20895;-87
2023/01/16 13:24:05;;;;;;;0.60;0.60;;;6.60;99.90;;;;;;5046122;27;20042;-88
2023/01/16 13:26:31;;;;;;;0.70;0.70;;;6.60;99.90;;;;;;5032823;27;20054;-88
2023/01/16 13:29:22;;;;;;;0.70;0.70;;;6.50;99.90;;;;;;5037294;27;20046;-88
2023/01/16 13:32:17;;;;;;;0.70;0.70;;;6.40;99.90;;;;;;5048845;27;20078;-89
2023/01/16 13:34:51;;;;;;;0.70;0.70;;;6.30;99.90;;;;;;5043009;27;20055;-87
2023/01/16 13:37:19;;;;;;;0.70;0.70;;;6.30;99.90;;;;;;5047133;27;20050;-89
2023/01/16 13:40:13;;;;;;;0.70;0.70;;;6.10;99.90;;;;;;5024718;27;20351;-88
2023/01/16 13:42:49;;;;;;;0.70;0.70;;;6.10;99.90;;;;;;5019517;27;20161;-89
2023/01/16 13:45:49;;;;;;;0.70;0.70;;;6.10;99.90;;;;;;5046995;27;20044;-90
2023/01/16 13:48:19;;;;;;;0.70;0.70;;;6.10;99.90;;;;;;5029723;27;20047;-87
2023/01/16 13:50:54;;;;;;;0.60;0.60;;;6.20;99.90;;;;;;5027488;27;20066;-89
2023/01/16 13:53:22;;;;;;;0.70;0.70;;;6.20;99.90;;;;;;5046540;27;20038;-89
2023/01/16 13:55:49;;;;;;;0.70;0.70;;;6.20;99.90;;;;;;4994644;27;20387;-87
2023/01/16 13:58:26;;;;;;;0.60;0.60;;;6.30;99.90;;;;;;5044590;27;20372;-89
2023/01/16 14:01:29;;;;;;;0.70;0.70;;;6.30;99.90;;;;;;5030889;27;20043;-89
2023/01/16 14:04:25;;;;;;;0.70;0.70;;;6.30;99.90;;;;;;5025166;27;20042;-89
2023/01/16 14:10:15;;;;;;;0.60;0.60;;;6.30;99.90;;;;;;5045476;27;20515;-90
2023/01/16 14:12:58;;;;;;;0.70;0.70;;;6.30;99.90;;;;;;5029723;27;20100;-89
2023/01/16 14:18:20;;;;;;;0.70;0.70;;;6.30;99.90;;;;;;5049441;27;20096;-88
2023/01/16 14:20:51;;;;;;;0.70;0.70;;;6.30;99.90;;;;;;5036459;27;20213;-86
2023/01/16 14:26:09;;;;;;;0.70;0.70;;;6.30;99.90;;;;;;5042058;27;20054;-88
2023/01/16 14:28:51;;;;;;;0.63;0.63;;;6.20;99.90;;;;;;5042278;27;20060;-89
2023/01/16 14:31:24;;;;;;;0.70;0.70;;;6.20;99.90;;;;;;5040881;27;20053;-88
2023/01/16 14:33:52;;;;;;;0.70;0.70;;;6.20;99.90;;;;;;5049510;27;20055;-88
2023/01/16 14:36:21;;;;;;;0.70;0.70;;;6.20;99.90;;;;;;5031880;27;20356;-89
2023/01/16 14:38:47;;;;;;;0.70;0.70;;;6.20;99.90;;;;;;5033034;27;20047;-88